Time;durP1;ratioP1;P1;durP2;ratioP2;P2;SDS_P1;SDS_P2;PMS_P1;PMS_P2;Temp;Humidity;BMP_temperature;BMP_pressure;BME280_temperature;BME280_humidity;BME280_pressure;Samples;Min_cycle;Max_cycle;Signal;HPM_P1;HPM_P2
2021/10/23 15:08:35;;;;;;;5.83;1.40;;;15.50;99.90;;;;;;4972172;23;20267;-68
2021/10/23 15:11:02;;;;;;;2.27;1.00;;;15.40;99.90;;;;;;4961800;28;20298;-69
2021/10/23 15:13:28;;;;;;;2.20;1.10;;;15.40;99.90;;;;;;4968183;28;20219;-68
2021/10/23 15:15:56;;;;;;;3.00;1.27;;;15.40;99.90;;;;;;4976366;28;20227;-68
2021/10/23 15:18:22;;;;;;;3.97;1.73;;;15.30;99.90;;;;;;4976188;28;20563;-68
2021/10/23 15:20:49;;;;;;;5.33;1.50;;;15.30;99.90;;;;;;4976084;28;20654;-68
2021/10/23 15:23:16;;;;;;;4.23;1.43;;;15.20;99.90;;;;;;4975905;28;20211;-68
2021/10/23 15:25:44;;;;;;;3.17;1.40;;;15.20;99.90;;;;;;4975898;28;20223;-69
2021/10/23 15:28:11;;;;;;;3.93;1.30;;;15.30;99.90;;;;;;4975085;28;20283;-68
2021/10/23 15:30:38;;;;;;;2.80;1.37;;;15.30;99.90;;;;;;4975706;28;20293;-67
2021/10/23 15:33:05;;;;;;;3.37;1.20;;;15.30;99.90;;;;;;4975546;28;20548;-69
2021/10/23 15:35:34;;;;;;;3.93;1.03;;;15.30;99.90;;;;;;4975667;28;20250;-68
2021/10/23 15:38:01;;;;;;;2.57;1.40;;;15.30;99.90;;;;;;4975516;28;20638;-73
2021/10/23 15:40:33;;;;;;;4.77;1.23;;;15.20;99.90;;;;;;4975402;28;20211;-74
2021/10/23 15:43:02;;;;;;;1.67;1.13;;;15.20;99.90;;;;;;4972274;28;20234;-69
2021/10/23 15:45:29;;;;;;;3.10;1.00;;;15.20;99.90;;;;;;4974374;28;20246;-71
2021/10/23 15:47:56;;;;;;;7.03;1.20;;;15.10;99.90;;;;;;4974194;28;20308;-71
2021/10/23 15:50:23;;;;;;;6.07;1.33;;;15.00;99.90;;;;;;4974215;28;20239;-72
2021/10/23 15:52:50;;;;;;;3.07;1.30;;;15.00;99.90;;;;;;4973348;28;20207;-72
2021/10/23 15:55:16;;;;;;;2.17;1.03;;;14.80;99.90;;;;;;4973646;28;20242;-72
2021/10/23 15:57:43;;;;;;;2.07;0.90;;;14.80;99.90;;;;;;4974433;28;20214;-74
2021/10/23 16:00:12;;;;;;;4.90;1.30;;;14.60;99.90;;;;;;4974072;28;20211;-75
2021/10/23 16:02:39;;;;;;;3.20;0.97;;;14.40;99.90;;;;;;4974091;28;20210;-72
2021/10/23 16:05:07;;;;;;;2.37;1.07;;;14.30;99.90;;;;;;4973802;28;20720;-69
2021/10/23 16:07:34;;;;;;;3.27;1.07;;;14.10;99.90;;;;;;4973443;28;20211;-81
2021/10/23 16:10:01;;;;;;;2.80;0.97;;;14.00;99.90;;;;;;4973623;28;20235;-74
2021/10/23 16:12:28;;;;;;;2.60;0.90;;;13.90;99.90;;;;;;4973653;28;20262;-73
2021/10/23 16:14:55;;;;;;;2.23;0.97;;;13.80;99.90;;;;;;4973457;28;20223;-72
2021/10/23 16:17:23;;;;;;;3.33;1.40;;;13.70;99.90;;;;;;4974105;28;20221;-69
2021/10/23 16:19:49;;;;;;;4.70;1.33;;;13.70;99.90;;;;;;4974430;28;20229;-69
2021/10/23 16:22:16;;;;;;;4.20;0.97;;;13.60;99.90;;;;;;4974608;28;20211;-69
2021/10/23 16:24:43;;;;;;;3.63;1.13;;;13.60;99.90;;;;;;4974676;28;20250;-69
2021/10/23 16:27:10;;;;;;;1.47;0.83;;;13.60;99.90;;;;;;4975073;28;20230;-69
2021/10/23 16:29:37;;;;;;;2.70;1.30;;;13.60;99.90;;;;;;4974754;28;20302;-69
2021/10/23 16:32:04;;;;;;;4.10;1.00;;;13.60;99.90;;;;;;4974818;28;20211;-70
2021/10/23 16:34:32;;;;;;;2.60;1.33;;;13.60;99.90;;;;;;4974616;28;20310;-69
2021/10/23 16:36:59;;;;;;;1.60;0.77;;;13.50;99.90;;;;;;4974855;28;20211;-69
2021/10/23 16:39:26;;;;;;;5.73;1.20;;;13.50;99.90;;;;;;4974943;28;20218;-69
2021/10/23 16:41:53;;;;;;;4.33;1.53;;;13.60;99.90;;;;;;4974520;28;20221;-69
2021/10/23 16:44:21;;;;;;;1.90;0.90;;;13.60;99.90;;;;;;4974965;28;20587;-69
2021/10/23 16:46:48;;;;;;;4.00;1.30;;;13.60;99.90;;;;;;4974390;28;20215;-69
2021/10/23 16:49:16;;;;;;;5.43;1.50;;;13.70;99.90;;;;;;4974178;28;20566;-69
2021/10/23 16:51:44;;;;;;;2.47;0.90;;;13.70;99.90;;;;;;4974620;28;20321;-68
2021/10/23 16:54:11;;;;;;;6.30;1.50;;;13.70;99.90;;;;;;4974520;28;20218;-69
2021/10/23 16:56:38;;;;;;;2.33;1.30;;;13.70;99.90;;;;;;4974401;28;20214;-69
2021/10/23 16:59:06;;;;;;;4.13;1.70;;;13.70;99.90;;;;;;4974499;28;20211;-69
2021/10/23 17:01:33;;;;;;;2.90;1.10;;;13.60;99.90;;;;;;4974311;28;20219;-69
2021/10/23 17:04:00;;;;;;;3.43;1.20;;;13.70;99.90;;;;;;4974223;28;20203;-70
2021/10/23 17:06:26;;;;;;;2.13;1.00;;;13.70;99.90;;;;;;4974615;28;20670;-70
2021/10/23 17:08:55;;;;;;;4.87;1.03;;;13.70;99.90;;;;;;4974321;28;20309;-69
2021/10/23 17:11:21;;;;;;;3.50;1.13;;;13.70;99.90;;;;;;4973892;28;20235;-70
2021/10/23 17:13:48;;;;;;;5.90;2.60;;;13.70;99.90;;;;;;4974097;28;20209;-70
2021/10/23 17:16:15;;;;;;;3.90;1.80;;;13.50;99.90;;;;;;4974213;28;20237;-70
2021/10/23 17:18:42;;;;;;;6.03;2.10;;;13.50;99.90;;;;;;4974122;28;20214;-70
2021/10/23 17:21:10;;;;;;;4.70;2.07;;;13.50;99.90;;;;;;4974140;28;20211;-70
2021/10/23 17:23:37;;;;;;;3.27;1.57;;;13.40;99.90;;;;;;4974049;28;20258;-70
2021/10/23 17:26:05;;;;;;;3.23;1.70;;;13.30;99.90;;;;;;4974024;28;20231;-70
2021/10/23 17:28:32;;;;;;;3.13;1.93;;;13.20;99.90;;;;;;4974617;28;20214;-70
2021/10/23 17:31:01;;;;;;;5.13;2.07;;;13.20;99.90;;;;;;4973899;28;20729;-70
2021/10/23 17:33:29;;;;;;;6.10;2.10;;;13.00;99.90;;;;;;4978281;28;20210;-70
2021/10/23 17:35:56;;;;;;;4.27;2.00;;;12.90;99.90;;;;;;4977994;28;20234;-70
2021/10/23 17:38:22;;;;;;;5.03;2.13;;;12.90;99.90;;;;;;4978155;28;20215;-70
2021/10/23 17:40:49;;;;;;;5.93;2.50;;;12.80;99.90;;;;;;4977625;28;20214;-70
2021/10/23 17:43:17;;;;;;;6.47;2.77;;;12.70;99.90;;;;;;4977802;28;20211;-69
2021/10/23 17:45:44;;;;;;;4.40;2.63;;;12.50;99.90;;;;;;4977681;28;20242;-70
2021/10/23 17:48:12;;;;;;;5.63;2.57;;;12.50;99.90;;;;;;4977998;28;20207;-69
2021/10/23 17:50:39;;;;;;;6.73;2.80;;;12.50;99.90;;;;;;4977740;28;20713;-70
2021/10/23 17:53:06;;;;;;;8.17;3.50;;;12.40;99.90;;;;;;4977793;28;20207;-70
2021/10/23 17:55:33;;;;;;;7.00;3.30;;;12.20;99.90;;;;;;4977630;28;20227;-69
2021/10/23 17:58:00;;;;;;;6.33;3.30;;;12.10;99.90;;;;;;4977555;28;20215;-70
2021/10/23 18:00:28;;;;;;;7.87;2.83;;;12.10;99.90;;;;;;4977584;28;20217;-69
2021/10/23 18:02:55;;;;;;;8.13;3.47;;;12.10;99.90;;;;;;4977447;28;20203;-71
2021/10/23 18:05:22;;;;;;;6.20;2.90;;;12.20;99.90;;;;;;4977513;28;20231;-69
2021/10/23 18:07:51;;;;;;;6.60;3.23;;;12.20;99.90;;;;;;4977352;28;20214;-70
2021/10/23 18:10:19;;;;;;;7.43;3.47;;;12.10;99.90;;;;;;4977167;28;20210;-70
2021/10/23 18:12:46;;;;;;;7.23;3.13;;;12.10;99.90;;;;;;4977349;28;20211;-69
2021/10/23 18:15:13;;;;;;;6.33;3.20;;;12.20;99.90;;;;;;4977540;28;20231;-69
2021/10/23 18:17:47;;;;;;;9.80;3.50;;;12.30;99.90;;;;;;4977449;28;20218;-68
2021/10/23 18:20:15;;;;;;;7.83;3.53;;;12.30;99.90;;;;;;4977256;28;20241;-69
2021/10/23 18:22:43;;;;;;;8.47;3.93;;;12.40;99.90;;;;;;4977170;28;20211;-69
2021/10/23 18:25:12;;;;;;;8.00;3.83;;;12.40;99.90;;;;;;4976879;28;20223;-69
2021/10/23 18:27:40;;;;;;;6.20;3.47;;;12.30;99.90;;;;;;4977503;28;20213;-69
2021/10/23 18:30:09;;;;;;;7.90;3.60;;;12.20;99.90;;;;;;4977226;28;20207;-69
2021/10/23 18:32:36;;;;;;;6.33;3.67;;;12.20;99.90;;;;;;4976781;28;20208;-69
2021/10/23 18:35:05;;;;;;;6.37;3.60;;;12.20;99.90;;;;;;4976778;28;20227;-69
2021/10/23 18:37:32;;;;;;;7.90;3.57;;;12.30;99.90;;;;;;4976889;28;20207;-69
2021/10/23 18:39:59;;;;;;;7.73;3.33;;;12.20;99.90;;;;;;4976725;28;20214;-69
2021/10/23 18:42:25;;;;;;;5.67;3.40;;;12.30;99.90;;;;;;4976607;28;20218;-69
2021/10/23 18:44:54;;;;;;;7.03;4.00;;;12.40;99.90;;;;;;4976652;28;20709;-69
2021/10/23 18:47:21;;;;;;;8.47;3.30;;;12.40;99.90;;;;;;4976707;28;20210;-69
2021/10/23 18:49:48;;;;;;;12.27;5.40;;;12.60;99.90;;;;;;4976675;28;20238;-69
2021/10/23 18:52:17;;;;;;;10.80;3.53;;;12.60;99.90;;;;;;4976277;28;20829;-69
2021/10/23 18:54:45;;;;;;;9.13;3.00;;;12.60;99.90;;;;;;4976529;28;20233;-69
2021/10/23 18:57:12;;;;;;;7.37;3.60;;;12.70;99.90;;;;;;4976687;28;20207;-69
2021/10/23 18:59:40;;;;;;;6.50;3.17;;;12.70;99.90;;;;;;4976441;28;20214;-69
2021/10/23 19:02:07;;;;;;;3.53;2.60;;;12.80;99.90;;;;;;4976547;28;20229;-69
2021/10/23 19:04:35;;;;;;;7.47;2.80;;;12.60;99.90;;;;;;4976366;28;20597;-69
2021/10/23 19:07:02;;;;;;;7.57;3.47;;;12.50;99.90;;;;;;4976151;28;20290;-69
2021/10/23 19:09:30;;;;;;;6.27;2.63;;;12.60;99.90;;;;;;4976026;28;20670;-69
2021/10/23 19:11:57;;;;;;;4.67;2.53;;;12.60;99.90;;;;;;4976155;28;20322;-69
2021/10/23 19:14:25;;;;;;;5.20;2.77;;;12.70;99.90;;;;;;4976304;28;20223;-69
2021/10/23 19:16:52;;;;;;;5.07;3.10;;;12.70;99.90;;;;;;4976454;28;20208;-69
2021/10/23 19:19:19;;;;;;;5.40;2.63;;;12.70;99.90;;;;;;4976195;28;20739;-69
2021/10/23 19:21:46;;;;;;;7.13;3.00;;;12.70;99.90;;;;;;4976210;28;20550;-69
2021/10/23 19:24:13;;;;;;;4.43;2.60;;;12.80;99.90;;;;;;4975926;28;20665;-69
2021/10/23 19:26:42;;;;;;;5.07;2.63;;;12.70;99.90;;;;;;4976231;28;20207;-69
2021/10/23 19:29:08;;;;;;;4.37;2.57;;;12.70;99.90;;;;;;4976186;28;20211;-70
2021/10/23 19:31:35;;;;;;;6.13;2.53;;;12.70;99.90;;;;;;4975779;28;20237;-70
2021/10/23 19:34:02;;;;;;;7.93;2.67;;;12.60;99.90;;;;;;4975770;28;20214;-70
2021/10/23 19:36:29;;;;;;;6.07;2.50;;;12.60;99.90;;;;;;4975959;28;20207;-70
2021/10/23 19:38:56;;;;;;;4.70;2.30;;;12.70;99.90;;;;;;4975889;28;20222;-70
2021/10/23 19:41:23;;;;;;;5.57;2.57;;;12.60;99.90;;;;;;4975570;28;20764;-70
2021/10/23 19:43:52;;;;;;;5.20;2.50;;;12.60;99.90;;;;;;4975724;28;20290;-70
2021/10/23 19:46:21;;;;;;;6.60;2.80;;;12.50;99.90;;;;;;4975640;28;20626;-70
2021/10/23 19:48:48;;;;;;;5.37;2.63;;;12.50;99.90;;;;;;4975663;28;20563;-70
2021/10/23 19:51:14;;;;;;;5.97;2.97;;;12.40;99.90;;;;;;4975325;28;20326;-70
2021/10/23 19:53:41;;;;;;;5.27;2.63;;;12.30;99.90;;;;;;4975156;28;20217;-69
2021/10/23 19:56:11;;;;;;;5.00;2.63;;;12.20;99.90;;;;;;4975098;28;20797;-70
2021/10/23 19:58:39;;;;;;;4.10;2.63;;;12.10;99.90;;;;;;4975421;28;20217;-70
2021/10/23 20:01:07;;;;;;;5.53;2.77;;;12.00;99.90;;;;;;4975255;28;20259;-70
2021/10/23 20:03:34;;;;;;;5.90;2.50;;;12.00;99.90;;;;;;4975403;28;20207;-70
2021/10/23 20:06:01;;;;;;;5.50;2.70;;;11.90;99.90;;;;;;4975185;28;20227;-70
2021/10/23 20:08:28;;;;;;;4.53;2.57;;;11.90;99.90;;;;;;4975126;28;20624;-70
2021/10/23 20:10:55;;;;;;;5.17;2.90;;;11.80;99.90;;;;;;4974991;28;20207;-70
2021/10/23 20:13:23;;;;;;;4.87;2.30;;;11.70;99.90;;;;;;4974948;28;20402;-70
2021/10/23 20:15:50;;;;;;;4.57;2.60;;;11.60;99.90;;;;;;4975192;28;20231;-70
2021/10/23 20:18:19;;;;;;;3.53;2.60;;;11.40;99.90;;;;;;4975024;28;20213;-70
2021/10/23 20:20:46;;;;;;;5.33;2.63;;;11.30;99.90;;;;;;4975075;28;20207;-69
2021/10/23 20:23:13;;;;;;;3.93;2.47;;;11.20;99.90;;;;;;4975069;28;20219;-70
2021/10/23 20:25:40;;;;;;;3.73;2.13;;;11.30;99.90;;;;;;4974772;28;20223;-70
2021/10/23 20:28:07;;;;;;;2.87;2.10;;;11.30;99.90;;;;;;4974756;28;20291;-70
2021/10/23 20:30:34;;;;;;;4.00;2.43;;;11.20;99.90;;;;;;4974940;28;20287;-70
2021/10/23 20:33:01;;;;;;;5.33;2.80;;;11.10;99.90;;;;;;4975041;28;20325;-70
2021/10/23 20:35:29;;;;;;;3.60;2.63;;;10.90;99.90;;;;;;4975074;28;20319;-70
2021/10/23 20:37:58;;;;;;;3.63;2.50;;;11.00;99.90;;;;;;4974854;28;20219;-69
2021/10/23 20:40:26;;;;;;;4.53;2.67;;;10.90;99.90;;;;;;4974744;28;20215;-70
2021/10/23 20:42:53;;;;;;;6.30;3.00;;;10.90;99.90;;;;;;4974976;28;20269;-69
2021/10/23 20:45:20;;;;;;;4.00;2.63;;;10.80;99.90;;;;;;4974919;28;20585;-70
2021/10/23 20:47:47;;;;;;;5.67;2.73;;;10.80;99.90;;;;;;4974706;28;20566;-69
2021/10/23 20:50:14;;;;;;;4.43;2.60;;;10.80;99.90;;;;;;4974626;28;20204;-70
2021/10/23 20:52:42;;;;;;;6.53;3.00;;;10.80;99.90;;;;;;4974575;28;20589;-70
2021/10/23 20:55:12;;;;;;;5.20;3.10;;;11.00;99.90;;;;;;4974210;28;20725;-69
2021/10/23 20:57:39;;;;;;;5.13;2.87;;;11.10;99.90;;;;;;4974745;28;20298;-70
2021/10/23 21:00:07;;;;;;;6.13;2.93;;;11.00;99.90;;;;;;4974599;28;20203;-69
2021/10/23 21:02:34;;;;;;;4.03;2.60;;;11.00;99.90;;;;;;4974150;28;20547;-69
2021/10/23 21:05:02;;;;;;;6.70;3.00;;;10.90;99.90;;;;;;4991033;23;20223;-74
2021/10/23 21:07:29;;;;;;;5.73;2.43;;;10.90;99.90;;;;;;4974659;28;20215;-73
2021/10/23 21:09:57;;;;;;;3.73;2.50;;;10.80;99.90;;;;;;4979567;28;20207;-75
2021/10/23 21:12:24;;;;;;;4.13;2.80;;;10.60;99.90;;;;;;4974154;28;20593;-71
2021/10/23 21:14:51;;;;;;;4.53;2.70;;;10.60;99.90;;;;;;4974051;28;20223;-72
2021/10/23 21:17:19;;;;;;;6.53;2.80;;;10.50;99.90;;;;;;4974458;28;20224;-77
2021/10/23 21:19:47;;;;;;;3.60;2.70;;;10.30;99.90;;;;;;4975340;28;20203;-78
2021/10/23 21:22:14;;;;;;;4.93;2.47;;;10.20;99.90;;;;;;4974944;28;20207;-73
2021/10/23 21:24:41;;;;;;;4.37;2.40;;;10.10;99.90;;;;;;4974551;28;20228;-73
2021/10/23 21:27:09;;;;;;;4.57;2.47;;;10.10;99.90;;;;;;4974238;28;20203;-74
2021/10/23 21:29:36;;;;;;;5.23;2.63;;;10.00;99.90;;;;;;4974372;28;20696;-77
2021/10/23 21:32:04;;;;;;;2.73;2.17;;;10.10;99.90;;;;;;4973637;28;20263;-72
2021/10/23 21:34:31;;;;;;;4.40;2.50;;;10.00;99.90;;;;;;4974287;28;20241;-75
2021/10/23 21:36:58;;;;;;;5.73;2.63;;;9.90;99.90;;;;;;4974015;28;20219;-75
2021/10/23 21:39:25;;;;;;;4.43;2.20;;;9.80;99.90;;;;;;4974636;28;20218;-76
2021/10/23 21:41:53;;;;;;;4.17;2.57;;;9.80;99.90;;;;;;4974600;28;20211;-75
2021/10/23 21:44:21;;;;;;;4.43;2.50;;;9.70;99.90;;;;;;4974604;28;20238;-75
2021/10/23 21:46:48;;;;;;;3.80;2.40;;;9.60;99.90;;;;;;4973948;28;20233;-72
2021/10/23 21:49:15;;;;;;;7.53;2.57;;;9.50;99.90;;;;;;4974088;28;20548;-75
2021/10/23 21:51:42;;;;;;;5.77;2.13;;;9.50;99.90;;;;;;4973879;28;20697;-73
2021/10/23 21:54:09;;;;;;;4.07;2.20;;;9.50;99.90;;;;;;4973967;28;20670;-72
2021/10/23 21:56:36;;;;;;;3.77;2.40;;;9.40;99.90;;;;;;4973551;28;20539;-74
2021/10/23 21:59:03;;;;;;;5.13;2.67;;;9.30;99.90;;;;;;4973688;28;20211;-76
2021/10/23 22:01:32;;;;;;;7.40;4.73;;;9.40;99.90;;;;;;4973745;28;20750;-71
2021/10/23 22:03:59;;;;;;;3.80;2.97;;;9.40;99.90;;;;;;4974134;28;20536;-73
2021/10/23 22:06:26;;;;;;;4.43;2.43;;;9.30;99.90;;;;;;4973536;28;20211;-76
2021/10/23 22:08:53;;;;;;;3.57;2.20;;;9.10;99.90;;;;;;4973332;28;20721;-73
2021/10/23 22:11:19;;;;;;;6.87;2.50;;;9.10;99.90;;;;;;4973593;28;20544;-73
2021/10/23 22:13:46;;;;;;;3.87;2.50;;;9.00;99.90;;;;;;4973712;28;20238;-75
2021/10/23 22:16:14;;;;;;;4.27;2.47;;;8.90;99.90;;;;;;4973563;28;20712;-71
2021/10/23 22:18:43;;;;;;;3.63;2.30;;;8.90;99.90;;;;;;4976064;28;20211;-76
2021/10/23 22:21:12;;;;;;;4.43;1.97;;;8.90;99.90;;;;;;4977646;28;20293;-71
2021/10/23 22:23:39;;;;;;;6.27;2.50;;;8.90;99.90;;;;;;4977290;28;20222;-74
2021/10/23 22:26:08;;;;;;;3.87;2.10;;;8.90;99.90;;;;;;4977255;28;20238;-74
2021/10/23 22:28:35;;;;;;;4.80;2.50;;;8.90;99.90;;;;;;4977336;28;20306;-74
2021/10/23 22:31:02;;;;;;;3.13;1.93;;;8.90;99.90;;;;;;4977217;28;20207;-71
2021/10/23 22:33:30;;;;;;;4.03;2.50;;;8.90;99.90;;;;;;4977254;28;20235;-75
2021/10/23 22:35:58;;;;;;;5.27;2.63;;;8.80;99.90;;;;;;4977255;28;20234;-74
2021/10/23 22:38:25;;;;;;;4.03;2.43;;;8.80;99.90;;;;;;4977200;28;20221;-71
2021/10/23 22:40:54;;;;;;;3.40;2.47;;;8.90;99.90;;;;;;4977054;28;20226;-71
2021/10/23 22:43:20;;;;;;;4.57;2.30;;;8.80;99.90;;;;;;4976655;28;20298;-70
2021/10/23 22:45:48;;;;;;;5.80;2.87;;;8.90;99.90;;;;;;4976947;28;20320;-70
2021/10/23 22:48:14;;;;;;;2.97;2.10;;;8.90;99.90;;;;;;4976996;28;20231;-70
2021/10/23 22:50:41;;;;;;;7.30;2.83;;;8.90;99.90;;;;;;4976729;28;20203;-72
2021/10/23 22:53:10;;;;;;;3.63;2.23;;;8.80;99.90;;;;;;4977151;28;20609;-71
2021/10/23 22:55:36;;;;;;;3.97;2.40;;;8.80;99.90;;;;;;4975853;28;20231;-76
2021/10/23 22:58:05;;;;;;;6.07;2.70;;;8.80;99.90;;;;;;4975626;28;20233;-70
2021/10/23 23:00:33;;;;;;;4.30;2.70;;;8.70;99.90;;;;;;4976133;28;20211;-75
2021/10/23 23:02:59;;;;;;;6.13;2.87;;;8.80;99.90;;;;;;4976006;28;20229;-71
2021/10/23 23:05:26;;;;;;;6.97;2.97;;;8.90;99.90;;;;;;4976432;28;20246;-75
2021/10/23 23:07:53;;;;;;;4.47;2.50;;;8.90;99.90;;;;;;4976474;28;20298;-72
2021/10/23 23:10:21;;;;;;;8.77;3.10;;;8.90;99.90;;;;;;4976311;28;20211;-72
2021/10/23 23:12:48;;;;;;;4.20;2.50;;;8.80;99.90;;;;;;4976217;28;20241;-72
2021/10/23 23:15:15;;;;;;;4.10;2.67;;;8.80;99.90;;;;;;4976030;28;20321;-72
2021/10/23 23:17:42;;;;;;;5.60;2.80;;;8.80;99.90;;;;;;4976682;28;20214;-72
2021/10/23 23:20:09;;;;;;;5.17;2.70;;;8.80;99.90;;;;;;4977852;28;20688;-73
2021/10/23 23:22:37;;;;;;;5.03;2.67;;;8.80;99.90;;;;;;4976222;28;20221;-72
2021/10/23 23:25:05;;;;;;;5.90;2.40;;;8.80;99.90;;;;;;4975761;28;20227;-72
2021/10/23 23:27:34;;;;;;;4.97;2.90;;;8.70;99.90;;;;;;4976195;28;20207;-74
2021/10/23 23:30:00;;;;;;;4.47;2.50;;;8.80;99.90;;;;;;4975288;28;20207;-71
2021/10/23 23:32:27;;;;;;;4.27;2.60;;;8.80;99.90;;;;;;4975821;28;20689;-72
2021/10/23 23:34:54;;;;;;;4.23;2.73;;;8.70;99.90;;;;;;4975919;28;20238;-72
2021/10/23 23:37:21;;;;;;;4.53;2.50;;;8.70;99.90;;;;;;4975822;28;20238;-74
2021/10/23 23:39:48;;;;;;;4.87;2.60;;;8.70;99.90;;;;;;4975703;28;20295;-73
2021/10/23 23:42:15;;;;;;;5.77;3.23;;;8.70;99.90;;;;;;4976173;28;20211;-72
2021/10/23 23:44:43;;;;;;;5.00;2.70;;;8.60;99.90;;;;;;4975757;28;20237;-72
2021/10/23 23:47:09;;;;;;;5.87;2.53;;;8.70;99.90;;;;;;4975732;28;20207;-71
2021/10/23 23:49:36;;;;;;;4.23;2.13;;;8.70;99.90;;;;;;4975174;28;20211;-71
2021/10/23 23:52:04;;;;;;;6.93;2.20;;;8.60;99.90;;;;;;4975461;28;20207;-71
2021/10/23 23:54:30;;;;;;;3.97;2.30;;;8.60;99.90;;;;;;4974990;28;20231;-72
2021/10/23 23:56:58;;;;;;;4.40;2.63;;;8.60;99.90;;;;;;4975003;28;20658;-74
2021/10/23 23:59:25;;;;;;;6.30;2.60;;;8.50;99.90;;;;;;4975048;28;20218;-71
